sensor_id;sensor_type;location;lat;lon;timestamp;temperature;humidity
10175;DHT22;18221;38.704;0.152;2023-05-07T00:56:07;18.90;99.90
10175;DHT22;18221;38.704;0.152;2023-05-07T00:59:00;18.90;99.90
10175;DHT22;18221;38.704;0.152;2023-05-07T01:01:36;19.00;99.90
10175;DHT22;18221;38.704;0.152;2023-05-07T01:04:30;18.90;99.90
10175;DHT22;18221;38.704;0.152;2023-05-07T01:07:04;18.90;99.90
10175;DHT22;18221;38.704;0.152;2023-05-07T01:09:40;18.90;99.90
10175;DHT22;18221;38.704;0.152;2023-05-07T01:12:10;18.90;99.90
10175;DHT22;18221;38.704;0.152;2023-05-07T01:14:40;18.80;99.90
10175;DHT22;18221;38.704;0.152;2023-05-07T01:17:12;18.80;99.90
10175;DHT22;18221;38.704;0.152;2023-05-07T01:19:41;18.70;99.90
10175;DHT22;18221;38.704;0.152;2023-05-07T01:22:16;18.60;99.90
10175;DHT22;18221;38.704;0.152;2023-05-07T01:24:59;18.60;99.90
10175;DHT22;18221;38.704;0.152;2023-05-07T01:27:31;18.50;99.90
10175;DHT22;18221;38.704;0.152;2023-05-07T01:30:07;18.50;99.90
10175;DHT22;18221;38.704;0.152;2023-05-07T01:32:40;18.50;99.90
10175;DHT22;18221;38.704;0.152;2023-05-07T01:35:19;18.40;99.90
10175;DHT22;18221;38.704;0.152;2023-05-07T01:37:57;18.40;99.90
10175;DHT22;18221;38.704;0.152;2023-05-07T01:40:28;18.40;99.90
10175;DHT22;18221;38.704;0.152;2023-05-07T01:42:57;18.40;99.90
10175;DHT22;18221;38.704;0.152;2023-05-07T01:45:25;18.40;99.90
10175;DHT22;18221;38.704;0.152;2023-05-07T01:47:58;18.30;99.90
10175;DHT22;18221;38.704;0.152;2023-05-07T01:50:27;18.30;99.90
10175;DHT22;18221;38.704;0.152;2023-05-07T01:53:02;18.30;99.90
10175;DHT22;18221;38.704;0.152;2023-05-07T01:55:30;18.40;99.90
10175;DHT22;18221;38.704;0.152;2023-05-07T01:58:01;18.30;99.90
10175;DHT22;18221;38.704;0.152;2023-05-07T02:00:32;18.30;99.90
10175;DHT22;18221;38.704;0.152;2023-05-07T02:03:02;18.30;99.90
10175;DHT22;18221;38.704;0.152;2023-05-07T02:05:32;18.40;99.90
10175;DHT22;18221;38.704;0.152;2023-05-07T02:08:04;18.40;99.90
10175;DHT22;18221;38.704;0.152;2023-05-07T02:10:34;18.30;99.90
10175;DHT22;18221;38.704;0.152;2023-05-07T02:13:05;18.40;99.90
10175;DHT22;18221;38.704;0.152;2023-05-07T02:15:33;18.30;99.90
10175;DHT22;18221;38.704;0.152;2023-05-07T02:18:03;18.30;99.90
10175;DHT22;18221;38.704;0.152;2023-05-07T02:20:36;18.30;99.90
10175;DHT22;18221;38.704;0.152;2023-05-07T02:23:11;18.20;99.90
10175;DHT22;18221;38.704;0.152;2023-05-07T02:25:43;18.20;99.90
10175;DHT22;18221;38.704;0.152;2023-05-07T02:28:11;18.20;99.90
10175;DHT22;18221;38.704;0.152;2023-05-07T02:30:52;18.10;99.90
10175;DHT22;18221;38.704;0.152;2023-05-07T02:33:25;18.10;99.90
10175;DHT22;18221;38.704;0.152;2023-05-07T02:36:10;18.10;99.90
10175;DHT22;18221;38.704;0.152;2023-05-07T02:38:56;18.00;99.90
10175;DHT22;18221;38.704;0.152;2023-05-07T02:41:37;18.00;99.90
10175;DHT22;18221;38.704;0.152;2023-05-07T02:44:21;18.00;99.90
10175;DHT22;18221;38.704;0.152;2023-05-07T02:46:57;17.90;99.90
10175;DHT22;18221;38.704;0.152;2023-05-07T02:49:25;18.00;99.90
10175;DHT22;18221;38.704;0.152;2023-05-07T02:51:58;17.90;99.90
10175;DHT22;18221;38.704;0.152;2023-05-07T02:54:32;17.90;99.90
10175;DHT22;18221;38.704;0.152;2023-05-07T02:57:05;17.90;99.90
10175;DHT22;18221;38.704;0.152;2023-05-07T02:59:43;17.90;99.90
10175;DHT22;18221;38.704;0.152;2023-05-07T03:02:14;17.90;99.90
10175;DHT22;18221;38.704;0.152;2023-05-07T03:04:53;17.90;99.90
10175;DHT22;18221;38.704;0.152;2023-05-07T03:07:26;17.90;99.90
10175;DHT22;18221;38.704;0.152;2023-05-07T03:10:10;17.90;99.90
10175;DHT22;18221;38.704;0.152;2023-05-07T03:12:46;17.90;99.90
10175;DHT22;18221;38.704;0.152;2023-05-07T03:15:24;17.90;99.90
10175;DHT22;18221;38.704;0.152;2023-05-07T03:18:02;17.90;99.90
10175;DHT22;18221;38.704;0.152;2023-05-07T03:20:39;17.90;99.90
10175;DHT22;18221;38.704;0.152;2023-05-07T03:23:10;17.90;99.90
10175;DHT22;18221;38.704;0.152;2023-05-07T03:25:45;17.90;99.90
10175;DHT22;18221;38.704;0.152;2023-05-07T03:28:27;17.80;99.90
10175;DHT22;18221;38.704;0.152;2023-05-07T03:31:01;17.80;99.90
10175;DHT22;18221;38.704;0.152;2023-05-07T03:33:33;17.80;99.90
10175;DHT22;18221;38.704;0.152;2023-05-07T03:36:07;17.80;99.90
10175;DHT22;18221;38.704;0.152;2023-05-07T03:38:41;17.80;99.90
10175;DHT22;18221;38.704;0.152;2023-05-07T03:41:15;17.80;99.90
10175;DHT22;18221;38.704;0.152;2023-05-07T03:43:44;17.80;99.90
10175;DHT22;18221;38.704;0.152;2023-05-07T03:46:21;17.70;99.90
10175;DHT22;18221;38.704;0.152;2023-05-07T03:49:01;17.70;99.90
10175;DHT22;18221;38.704;0.152;2023-05-07T03:51:36;19.00;99.90
10175;DHT22;18221;38.704;0.152;2023-05-07T03:54:08;17.70;99.90
10175;DHT22;18221;38.704;0.152;2023-05-07T03:56:39;17.70;99.90
10175;DHT22;18221;38.704;0.152;2023-05-07T03:59:07;17.70;99.90
10175;DHT22;18221;38.704;0.152;2023-05-07T04:01:36;17.60;99.90
10175;DHT22;18221;38.704;0.152;2023-05-07T04:04:05;17.60;99.90
10175;DHT22;18221;38.704;0.152;2023-05-07T04:06:33;17.60;99.90
10175;DHT22;18221;38.704;0.152;2023-05-07T04:09:02;17.70;99.90
10175;DHT22;18221;38.704;0.152;2023-05-07T04:11:31;17.60;99.90
10175;DHT22;18221;38.704;0.152;2023-05-07T04:14:02;17.50;99.90
10175;DHT22;18221;38.704;0.152;2023-05-07T04:16:30;17.60;99.90
10175;DHT22;18221;38.704;0.152;2023-05-07T04:18:59;17.50;99.90
10175;DHT22;18221;38.704;0.152;2023-05-07T04:21:29;17.50;99.90
10175;DHT22;18221;38.704;0.152;2023-05-07T04:23:58;17.60;99.90
10175;DHT22;18221;38.704;0.152;2023-05-07T04:26:29;17.50;99.90
10175;DHT22;18221;38.704;0.152;2023-05-07T04:28:57;17.60;99.90
10175;DHT22;18221;38.704;0.152;2023-05-07T04:31:31;17.50;99.90
10175;DHT22;18221;38.704;0.152;2023-05-07T04:33:59;17.60;99.90
10175;DHT22;18221;38.704;0.152;2023-05-07T04:36:28;17.60;99.90
10175;DHT22;18221;38.704;0.152;2023-05-07T04:38:58;17.60;99.90
10175;DHT22;18221;38.704;0.152;2023-05-07T04:41:30;17.60;99.90
10175;DHT22;18221;38.704;0.152;2023-05-07T04:44:00;17.60;99.90
10175;DHT22;18221;38.704;0.152;2023-05-07T04:46:31;17.60;99.90
10175;DHT22;18221;38.704;0.152;2023-05-07T04:49:01;17.60;99.90
10175;DHT22;18221;38.704;0.152;2023-05-07T04:51:29;17.70;99.90
10175;DHT22;18221;38.704;0.152;2023-05-07T04:53:59;17.70;99.90
10175;DHT22;18221;38.704;0.152;2023-05-07T04:56:32;17.70;99.90
10175;DHT22;18221;38.704;0.152;2023-05-07T04:59:02;17.70;99.90
10175;DHT22;18221;38.704;0.152;2023-05-07T05:01:32;17.70;99.90
10175;DHT22;18221;38.704;0.152;2023-05-07T05:04:05;17.70;99.90
10175;DHT22;18221;38.704;0.152;2023-05-07T05:06:40;17.70;99.90
10175;DHT22;18221;38.704;0.152;2023-05-07T05:09:08;17.60;99.90
10175;DHT22;18221;38.704;0.152;2023-05-07T05:11:42;17.60;99.90
10175;DHT22;18221;38.704;0.152;2023-05-07T05:14:10;17.60;99.90
10175;DHT22;18221;38.704;0.152;2023-05-07T05:16:45;17.60;99.90
10175;DHT22;18221;38.704;0.152;2023-05-07T05:19:14;17.60;99.90
10175;DHT22;18221;38.704;0.152;2023-05-07T05:21:43;17.60;99.90
10175;DHT22;18221;38.704;0.152;2023-05-07T05:24:11;17.60;99.90
10175;DHT22;18221;38.704;0.152;2023-05-07T05:26:40;17.60;99.90
10175;DHT22;18221;38.704;0.152;2023-05-07T05:29:08;17.60;99.90
10175;DHT22;18221;38.704;0.152;2023-05-07T05:31:37;19.00;99.90
10175;DHT22;18221;38.704;0.152;2023-05-07T05:34:09;17.80;99.90
10175;DHT22;18221;38.704;0.152;2023-05-07T05:36:38;17.60;99.90
10175;DHT22;18221;38.704;0.152;2023-05-07T05:39:06;18.00;99.90
10175;DHT22;18221;38.704;0.152;2023-05-07T05:41:35;17.50;99.90
10175;DHT22;18221;38.704;0.152;2023-05-07T05:44:04;17.60;99.90
10175;DHT22;18221;38.704;0.152;2023-05-07T05:46:32;17.60;99.90
10175;DHT22;18221;38.704;0.152;2023-05-07T05:49:01;17.30;99.90
10175;DHT22;18221;38.704;0.152;2023-05-07T05:51:31;17.10;99.90
10175;DHT22;18221;38.704;0.152;2023-05-07T05:53:59;16.90;99.90
10175;DHT22;18221;38.704;0.152;2023-05-07T05:56:28;16.60;99.90
10175;DHT22;18221;38.704;0.152;2023-05-07T05:58:56;16.30;99.90
10175;DHT22;18221;38.704;0.152;2023-05-07T06:01:25;16.00;99.90
10175;DHT22;18221;38.704;0.152;2023-05-07T06:03:53;15.90;99.90
10175;DHT22;18221;38.704;0.152;2023-05-07T06:06:22;15.80;99.90
10175;DHT22;18221;38.704;0.152;2023-05-07T06:08:52;15.80;99.90
10175;DHT22;18221;38.704;0.152;2023-05-07T06:11:21;15.90;99.90
10175;DHT22;18221;38.704;0.152;2023-05-07T06:13:49;16.10;99.90
10175;DHT22;18221;38.704;0.152;2023-05-07T06:16:18;16.50;99.90
10175;DHT22;18221;38.704;0.152;2023-05-07T06:18:46;16.90;99.90
10175;DHT22;18221;38.704;0.152;2023-05-07T06:21:15;17.40;99.90
10175;DHT22;18221;38.704;0.152;2023-05-07T06:23:44;17.90;99.90
10175;DHT22;18221;38.704;0.152;2023-05-07T06:26:14;18.00;99.90
10175;DHT22;18221;38.704;0.152;2023-05-07T06:28:42;17.90;99.90
10175;DHT22;18221;38.704;0.152;2023-05-07T06:31:15;17.70;99.90
10175;DHT22;18221;38.704;0.152;2023-05-07T06:33:46;17.60;99.90
10175;DHT22;18221;38.704;0.152;2023-05-07T06:36:15;17.60;99.90
10175;DHT22;18221;38.704;0.152;2023-05-07T06:38:49;17.80;99.90
10175;DHT22;18221;38.704;0.152;2023-05-07T06:41:22;18.10;99.90
10175;DHT22;18221;38.704;0.152;2023-05-07T06:43:51;18.40;99.90
10175;DHT22;18221;38.704;0.152;2023-05-07T06:46:20;18.70;99.90
10175;DHT22;18221;38.704;0.152;2023-05-07T06:48:48;18.80;99.90
10175;DHT22;18221;38.704;0.152;2023-05-07T06:51:33;18.90;99.90
10175;DHT22;18221;38.704;0.152;2023-05-07T06:54:01;18.80;99.90
10175;DHT22;18221;38.704;0.152;2023-05-07T06:56:42;18.70;99.90
10175;DHT22;18221;38.704;0.152;2023-05-07T06:59:26;18.60;99.90
10175;DHT22;18221;38.704;0.152;2023-05-07T07:02:09;18.50;99.90
10175;DHT22;18221;38.704;0.152;2023-05-07T07:04:43;18.50;99.90
10175;DHT22;18221;38.704;0.152;2023-05-07T07:07:17;18.50;99.90
10175;DHT22;18221;38.704;0.152;2023-05-07T07:09:52;18.50;99.90
10175;DHT22;18221;38.704;0.152;2023-05-07T07:12:39;18.60;99.90
10175;DHT22;18221;38.704;0.152;2023-05-07T07:15:26;18.70;99.90
10175;DHT22;18221;38.704;0.152;2023-05-07T07:18:27;18.90;99.90
10175;DHT22;18221;38.704;0.152;2023-05-07T07:21:00;18.90;99.90
10175;DHT22;18221;38.704;0.152;2023-05-07T07:23:40;18.90;99.90
10175;DHT22;18221;38.704;0.152;2023-05-07T07:26:28;18.80;99.90
10175;DHT22;18221;38.704;0.152;2023-05-07T07:29:45;18.60;99.90
10175;DHT22;18221;38.704;0.152;2023-05-07T07:35:40;18.40;99.90
10175;DHT22;18221;38.704;0.152;2023-05-07T07:38:18;18.40;99.90
10175;DHT22;18221;38.704;0.152;2023-05-07T07:40:55;18.50;99.90
10175;DHT22;18221;38.704;0.152;2023-05-07T07:43:30;18.40;99.90
10175;DHT22;18221;38.704;0.152;2023-05-07T07:46:17;18.40;99.90
10175;DHT22;18221;38.704;0.152;2023-05-07T07:48:54;18.40;99.90
10175;DHT22;18221;38.704;0.152;2023-05-07T07:51:49;18.40;99.90
10175;DHT22;18221;38.704;0.152;2023-05-07T07:54:33;18.40;99.90
10175;DHT22;18221;38.704;0.152;2023-05-07T07:57:16;18.40;99.90
10175;DHT22;18221;38.704;0.152;2023-05-07T08:00:08;18.40;99.90
10175;DHT22;18221;38.704;0.152;2023-05-07T08:03:10;18.40;99.90
10175;DHT22;18221;38.704;0.152;2023-05-07T08:05:54;18.40;99.90
10175;DHT22;18221;38.704;0.152;2023-05-07T08:27:31;18.50;99.90
10175;DHT22;18221;38.704;0.152;2023-05-07T08:30:15;18.50;99.90
10175;DHT22;18221;38.704;0.152;2023-05-07T08:36:23;18.60;99.90
10175;DHT22;18221;38.704;0.152;2023-05-07T08:39:25;18.60;99.90
10175;DHT22;18221;38.704;0.152;2023-05-07T08:42:45;18.60;99.90
10175;DHT22;18221;38.704;0.152;2023-05-07T08:45:45;18.60;99.90
10175;DHT22;18221;38.704;0.152;2023-05-07T08:56:23;18.60;99.90
10175;DHT22;18221;38.704;0.152;2023-05-07T08:59:19;18.60;99.90
10175;DHT22;18221;38.704;0.152;2023-05-07T09:01:59;18.60;99.90
10175;DHT22;18221;38.704;0.152;2023-05-07T09:04:51;18.60;99.90
10175;DHT22;18221;38.704;0.152;2023-05-07T09:07:42;18.60;99.90
10175;DHT22;18221;38.704;0.152;2023-05-07T09:40:27;19.20;99.90
10175;DHT22;18221;38.704;0.152;2023-05-07T09:43:13;19.30;99.90
10175;DHT22;18221;38.704;0.152;2023-05-07T09:46:07;19.40;99.90
10175;DHT22;18221;38.704;0.152;2023-05-07T09:56:32;20.20;99.90
10175;DHT22;18221;38.704;0.152;2023-05-07T10:14:38;20.80;99.90
10175;DHT22;18221;38.704;0.152;2023-05-07T10:39:27;21.40;99.90
10175;DHT22;18221;38.704;0.152;2023-05-07T10:42:57;21.40;99.90
10175;DHT22;18221;38.704;0.152;2023-05-07T10:46:26;21.60;99.90
10175;DHT22;18221;38.704;0.152;2023-05-07T11:00:56;22.10;99.90
10175;DHT22;18221;38.704;0.152;2023-05-07T11:39:51;22.70;99.90
10175;DHT22;18221;38.704;0.152;2023-05-07T11:42:34;22.50;99.90
10175;DHT22;18221;38.704;0.152;2023-05-07T11:45:47;22.30;99.90
10175;DHT22;18221;38.704;0.152;2023-05-07T11:48:34;22.40;99.90
10175;DHT22;18221;38.704;0.152;2023-05-07T11:51:56;22.10;99.90
10175;DHT22;18221;38.704;0.152;2023-05-07T11:54:44;22.50;99.90
10175;DHT22;18221;38.704;0.152;2023-05-07T11:57:48;22.60;99.90
10175;DHT22;18221;38.704;0.152;2023-05-07T12:11:38;23.10;99.90
10175;DHT22;18221;38.704;0.152;2023-05-07T12:14:45;23.10;99.90
10175;DHT22;18221;38.704;0.152;2023-05-07T12:17:50;23.20;99.90
10175;DHT22;18221;38.704;0.152;2023-05-07T12:24:39;23.10;99.90
10175;DHT22;18221;38.704;0.152;2023-05-07T12:28:07;23.00;99.90
10175;DHT22;18221;38.704;0.152;2023-05-07T12:30:49;23.20;99.90
10175;DHT22;18221;38.704;0.152;2023-05-07T12:34:06;23.20;99.90
10175;DHT22;18221;38.704;0.152;2023-05-07T12:37:24;23.00;99.90
10175;DHT22;18221;38.704;0.152;2023-05-07T12:40:41;23.00;99.90
10175;DHT22;18221;38.704;0.152;2023-05-07T12:43:35;23.00;99.90
10175;DHT22;18221;38.704;0.152;2023-05-07T12:46:45;23.20;99.90
10175;DHT22;18221;38.704;0.152;2023-05-07T12:50:04;23.20;99.90
10175;DHT22;18221;38.704;0.152;2023-05-07T12:53:38;23.00;99.90
10175;DHT22;18221;38.704;0.152;2023-05-07T12:56:40;22.90;99.90
10175;DHT22;18221;38.704;0.152;2023-05-07T12:59:42;22.80;99.90
10175;DHT22;18221;38.704;0.152;2023-05-07T13:09:51;22.60;99.90
10175;DHT22;18221;38.704;0.152;2023-05-07T13:21:01;22.60;99.90
10175;DHT22;18221;38.704;0.152;2023-05-07T13:24:37;22.50;99.90
10175;DHT22;18221;38.704;0.152;2023-05-07T13:27:47;22.70;99.90
10175;DHT22;18221;38.704;0.152;2023-05-07T13:31:14;22.80;99.90
10175;DHT22;18221;38.704;0.152;2023-05-07T15:20:57;23.80;99.90
10175;DHT22;18221;38.704;0.152;2023-05-07T15:53:31;23.90;99.90
10175;DHT22;18221;38.704;0.152;2023-05-07T16:04:02;23.90;99.90
10175;DHT22;18221;38.704;0.152;2023-05-07T16:29:27;23.50;99.90
10175;DHT22;18221;38.704;0.152;2023-05-07T18:52:54;21.30;99.90
10175;DHT22;18221;38.704;0.152;2023-05-07T18:55:29;21.20;99.90
10175;DHT22;18221;38.704;0.152;2023-05-07T18:58:01;21.20;99.90
10175;DHT22;18221;38.704;0.152;2023-05-07T19:00:47;21.20;99.90
10175;DHT22;18221;38.704;0.152;2023-05-07T19:03:26;21.00;99.90
10175;DHT22;18221;38.704;0.152;2023-05-07T19:06:00;20.80;99.90
10175;DHT22;18221;38.704;0.152;2023-05-07T19:08:45;20.70;99.90
10175;DHT22;18221;38.704;0.152;2023-05-07T19:11:21;20.70;99.90
10175;DHT22;18221;38.704;0.152;2023-05-07T19:13:51;20.60;99.90
10175;DHT22;18221;38.704;0.152;2023-05-07T19:16:22;20.70;99.90
10175;DHT22;18221;38.704;0.152;2023-05-07T19:18:52;21.50;99.90
10175;DHT22;18221;38.704;0.152;2023-05-07T19:21:31;20.60;99.90
10175;DHT22;18221;38.704;0.152;2023-05-07T19:24:04;20.60;99.90
10175;DHT22;18221;38.704;0.152;2023-05-07T19:26:34;20.60;99.90
10175;DHT22;18221;38.704;0.152;2023-05-07T19:29:02;20.60;99.90
10175;DHT22;18221;38.704;0.152;2023-05-07T19:31:33;20.50;99.90
10175;DHT22;18221;38.704;0.152;2023-05-07T19:34:03;20.50;99.90
10175;DHT22;18221;38.704;0.152;2023-05-07T19:36:33;20.50;99.90
10175;DHT22;18221;38.704;0.152;2023-05-07T19:39:07;20.60;99.90
10175;DHT22;18221;38.704;0.152;2023-05-07T19:41:38;20.50;99.90
10175;DHT22;18221;38.704;0.152;2023-05-07T19:44:13;20.50;99.90
10175;DHT22;18221;38.704;0.152;2023-05-07T19:46:53;20.60;99.90
10175;DHT22;18221;38.704;0.152;2023-05-07T19:49:43;20.50;99.90
10175;DHT22;18221;38.704;0.152;2023-05-07T19:52:22;20.60;99.90
10175;DHT22;18221;38.704;0.152;2023-05-07T19:55:10;20.60;99.90
10175;DHT22;18221;38.704;0.152;2023-05-07T19:57:42;20.60;99.90
10175;DHT22;18221;38.704;0.152;2023-05-07T20:00:18;20.60;99.90
10175;DHT22;18221;38.704;0.152;2023-05-07T20:03:01;20.60;99.90
10175;DHT22;18221;38.704;0.152;2023-05-07T20:05:48;20.60;99.90
10175;DHT22;18221;38.704;0.152;2023-05-07T20:08:24;21.40;99.90
10175;DHT22;18221;38.704;0.152;2023-05-07T20:11:05;20.50;99.90
10175;DHT22;18221;38.704;0.152;2023-05-07T20:13:40;20.50;99.90
10175;DHT22;18221;38.704;0.152;2023-05-07T20:16:43;20.40;99.90
10175;DHT22;18221;38.704;0.152;2023-05-07T20:19:17;20.30;99.90
10175;DHT22;18221;38.704;0.152;2023-05-07T20:21:54;20.20;99.90
10175;DHT22;18221;38.704;0.152;2023-05-07T20:24:28;20.10;99.90
10175;DHT22;18221;38.704;0.152;2023-05-07T20:27:12;20.00;99.90
10175;DHT22;18221;38.704;0.152;2023-05-07T20:29:47;19.90;99.90
10175;DHT22;18221;38.704;0.152;2023-05-07T20:32:17;19.90;99.90
10175;DHT22;18221;38.704;0.152;2023-05-07T20:34:46;19.80;99.90
10175;DHT22;18221;38.704;0.152;2023-05-07T20:37:14;19.80;99.90
10175;DHT22;18221;38.704;0.152;2023-05-07T20:39:43;19.80;99.90
10175;DHT22;18221;38.704;0.152;2023-05-07T20:42:12;19.80;99.90
10175;DHT22;18221;38.704;0.152;2023-05-07T20:44:40;19.80;99.90
10175;DHT22;18221;38.704;0.152;2023-05-07T20:47:09;19.80;99.90
10175;DHT22;18221;38.704;0.152;2023-05-07T20:49:39;19.80;99.90
10175;DHT22;18221;38.704;0.152;2023-05-07T20:52:08;19.80;99.90
10175;DHT22;18221;38.704;0.152;2023-05-07T20:54:36;19.70;99.90
10175;DHT22;18221;38.704;0.152;2023-05-07T20:57:05;19.70;99.90
10175;DHT22;18221;38.704;0.152;2023-05-07T20:59:35;19.70;99.90
10175;DHT22;18221;38.704;0.152;2023-05-07T21:02:07;19.60;99.90
10175;DHT22;18221;38.704;0.152;2023-05-07T21:04:35;19.50;99.90
10175;DHT22;18221;38.704;0.152;2023-05-07T21:07:03;19.60;99.90
10175;DHT22;18221;38.704;0.152;2023-05-07T21:09:31;19.50;99.90
10175;DHT22;18221;38.704;0.152;2023-05-07T21:12:00;19.50;99.90
10175;DHT22;18221;38.704;0.152;2023-05-07T21:14:28;19.50;99.90
10175;DHT22;18221;38.704;0.152;2023-05-07T21:16:58;19.40;99.90
10175;DHT22;18221;38.704;0.152;2023-05-07T21:19:26;19.30;99.90
10175;DHT22;18221;38.704;0.152;2023-05-07T21:21:54;19.20;99.90
10175;DHT22;18221;38.704;0.152;2023-05-07T21:24:23;19.20;99.90
10175;DHT22;18221;38.704;0.152;2023-05-07T21:26:53;19.10;99.90
10175;DHT22;18221;38.704;0.152;2023-05-07T21:29:22;19.10;99.90
10175;DHT22;18221;38.704;0.152;2023-05-07T21:31:50;19.00;99.90
10175;DHT22;18221;38.704;0.152;2023-05-07T21:34:19;18.90;99.90
10175;DHT22;18221;38.704;0.152;2023-05-07T21:36:47;18.90;99.90
10175;DHT22;18221;38.704;0.152;2023-05-07T21:39:16;18.80;99.90
10175;DHT22;18221;38.704;0.152;2023-05-07T21:41:44;18.80;99.90
10175;DHT22;18221;38.704;0.152;2023-05-07T21:44:12;18.80;99.90
10175;DHT22;18221;38.704;0.152;2023-05-07T21:46:40;18.80;99.90
10175;DHT22;18221;38.704;0.152;2023-05-07T21:49:08;18.80;99.90
10175;DHT22;18221;38.704;0.152;2023-05-07T21:51:38;18.80;99.90
10175;DHT22;18221;38.704;0.152;2023-05-07T21:54:06;18.70;99.90
10175;DHT22;18221;38.704;0.152;2023-05-07T21:56:35;18.70;99.90
10175;DHT22;18221;38.704;0.152;2023-05-07T21:59:03;18.70;99.90
10175;DHT22;18221;38.704;0.152;2023-05-07T22:01:30;18.70;99.90
10175;DHT22;18221;38.704;0.152;2023-05-07T22:03:59;18.60;99.90
10175;DHT22;18221;38.704;0.152;2023-05-07T22:06:27;18.60;99.90
10175;DHT22;18221;38.704;0.152;2023-05-07T22:08:57;18.60;99.90
10175;DHT22;18221;38.704;0.152;2023-05-07T22:11:26;18.60;99.90
10175;DHT22;18221;38.704;0.152;2023-05-07T22:13:54;18.60;99.90
10175;DHT22;18221;38.704;0.152;2023-05-07T22:16:22;18.60;99.90
10175;DHT22;18221;38.704;0.152;2023-05-07T22:18:50;18.50;99.90
10175;DHT22;18221;38.704;0.152;2023-05-07T22:21:18;18.40;99.90
10175;DHT22;18221;38.704;0.152;2023-05-07T22:23:46;18.50;99.90
10175;DHT22;18221;38.704;0.152;2023-05-07T22:26:16;18.50;99.90
10175;DHT22;18221;38.704;0.152;2023-05-07T22:28:44;18.40;99.90
10175;DHT22;18221;38.704;0.152;2023-05-07T22:31:12;18.50;99.90
10175;DHT22;18221;38.704;0.152;2023-05-07T22:33:40;18.40;99.90
10175;DHT22;18221;38.704;0.152;2023-05-07T22:36:08;18.40;99.90
10175;DHT22;18221;38.704;0.152;2023-05-07T22:38:36;18.40;99.90
10175;DHT22;18221;38.704;0.152;2023-05-07T22:41:04;18.40;99.90
10175;DHT22;18221;38.704;0.152;2023-05-07T22:43:34;18.40;99.90
10175;DHT22;18221;38.704;0.152;2023-05-07T22:46:02;18.30;99.90
10175;DHT22;18221;38.704;0.152;2023-05-07T22:48:32;18.30;99.90
10175;DHT22;18221;38.704;0.152;2023-05-07T22:51:00;18.30;99.90
10175;DHT22;18221;38.704;0.152;2023-05-07T22:53:28;18.30;99.90
10175;DHT22;18221;38.704;0.152;2023-05-07T22:55:56;18.30;99.90
10175;DHT22;18221;38.704;0.152;2023-05-07T22:58:24;18.20;99.90
10175;DHT22;18221;38.704;0.152;2023-05-07T23:00:54;18.20;99.90
10175;DHT22;18221;38.704;0.152;2023-05-07T23:03:22;18.20;99.90
10175;DHT22;18221;38.704;0.152;2023-05-07T23:05:51;18.20;99.90
10175;DHT22;18221;38.704;0.152;2023-05-07T23:08:19;18.20;99.90
10175;DHT22;18221;38.704;0.152;2023-05-07T23:10:47;18.20;99.90
10175;DHT22;18221;38.704;0.152;2023-05-07T23:13:15;18.20;99.90
10175;DHT22;18221;38.704;0.152;2023-05-07T23:15:43;18.20;99.90
10175;DHT22;18221;38.704;0.152;2023-05-07T23:18:12;18.10;99.90
10175;DHT22;18221;38.704;0.152;2023-05-07T23:20:40;18.10;99.90
10175;DHT22;18221;38.704;0.152;2023-05-07T23:23:09;18.10;99.90
10175;DHT22;18221;38.704;0.152;2023-05-07T23:25:37;18.10;99.90
10175;DHT22;18221;38.704;0.152;2023-05-07T23:28:05;18.10;99.90
10175;DHT22;18221;38.704;0.152;2023-05-07T23:30:33;18.00;99.90
10175;DHT22;18221;38.704;0.152;2023-05-07T23:33:01;18.00;99.90
10175;DHT22;18221;38.704;0.152;2023-05-07T23:35:30;18.00;99.90
10175;DHT22;18221;38.704;0.152;2023-05-07T23:37:58;18.00;99.90
10175;DHT22;18221;38.704;0.152;2023-05-07T23:40:26;18.00;99.90
10175;DHT22;18221;38.704;0.152;2023-05-07T23:42:54;18.00;99.90
10175;DHT22;18221;38.704;0.152;2023-05-07T23:45:22;17.90;99.90
10175;DHT22;18221;38.704;0.152;2023-05-07T23:47:50;18.00;99.90
